Doris Moran — WRU2125 — position and weather

sailwx.info

Track history (hours):
 
Tides and Currents Weather Stations Pressure Air Temp Water Temp Dewpoint Dewpoint Depression Visibility Wind Speed Wind Dir Waves Ship Positions

Doris Moran

Owner: MORAN TOWING CORPORATION, New Canaan, CT. More information available from US FCC via Universal Licensing System and Coast Guard Vessel Documentation Center.

Last reported at 2018-Apr-21 07:27 UTC. Time now 2018-Apr-21 08:02 UTC.
Position N 39°30' W 074°08'.

Length 36 m; draft 5.3 m.

Type: Tow > 200 m length. MMSI: 366939790.

Date/timePositionNaut miles runAvg speedWind from/ knotsBaromVisibWave heightAir tempDewpointWater temp
2018-Apr-21 07:27N 39°30' W 074°08'174 5.3
2018-Apr-19 22:41N 36°56' W 075°52'1 6.8
2018-Apr-19 22:30N 36°56' W 075°54'5 9.1
2018-Apr-19 22:00N 36°57' W 075°59'5 9.2
2018-Apr-19 21:29N 36°58' W 076°05'12 5.1
2018-Apr-19 19:07N 36°59' W 076°20'2 7.1
2018-Apr-19 18:51N 36°57' W 076°20'4 8.7
2018-Apr-19 18:24N 36°53' W 076°20'3 7.6
2018-Apr-19 18:00N 36°51' W 076°18'3 6.1
2018-Apr-19 17:30N 36°48' W 076°18'1 2.5
2018-Apr-19 17:00N 36°46' W 076°18'0 0.0
2018-Apr-19 16:30N 36°46' W 076°18'0 0.0
2018-Apr-19 16:00N 36°46' W 076°18'0 0.0
2018-Apr-19 15:30N 36°46' W 076°18'0 0.0
2018-Apr-19 15:00N 36°46' W 076°18'0 0.0
2018-Apr-19 14:30N 36°46' W 076°18'0 0.0
2018-Apr-19 14:00N 36°46' W 076°18'0 0.0
2018-Apr-19 13:30N 36°46' W 076°18'0 0.0
2018-Apr-19 13:00N 36°46' W 076°18'0 0.0
2018-Apr-19 12:30N 36°46' W 076°18'0 0.0
2018-Apr-19 12:00N 36°46' W 076°18'0 0.0
2018-Apr-19 11:30N 36°46' W 076°18'0 0.0
2018-Apr-19 11:00N 36°46' W 076°18'0 0.0
2018-Apr-19 10:30N 36°46' W 076°18'0 0.0
2018-Apr-19 10:00N 36°46' W 076°18'0 0.0
2018-Apr-19 09:30N 36°46' W 076°18'0 0.0
2018-Apr-19 09:00N 36°46' W 076°18'0 0.0
2018-Apr-19 08:30N 36°46' W 076°18'0 0.0
2018-Apr-19 08:00N 36°46' W 076°18'0 0.0
2018-Apr-19 07:30N 36°46' W 076°18'0 0.0
2018-Apr-19 07:00N 36°46' W 076°18'0 0.0
2018-Apr-19 06:30N 36°46' W 076°18'0 0.0
2018-Apr-19 06:00N 36°46' W 076°18'0 0.0
2018-Apr-19 05:30N 36°46' W 076°18'0 0.0
2018-Apr-19 05:00N 36°46' W 076°18'0 0.0
2018-Apr-19 04:30N 36°46' W 076°18'0 0.0
2018-Apr-19 04:00N 36°46' W 076°18'0 0.0
2018-Apr-19 03:30N 36°46' W 076°18'0 0.0
2018-Apr-19 03:00N 36°46' W 076°18'0 0.0
2018-Apr-19 02:30N 36°46' W 076°18'0 0.0
2018-Apr-19 02:00N 36°46' W 076°18'0 0.0
2018-Apr-19 01:30N 36°46' W 076°18'0 0.0
2018-Apr-19 01:00N 36°46' W 076°18'0 0.0
2018-Apr-19 00:30N 36°46' W 076°18'0 0.0
2018-Apr-19 00:00N 36°46' W 076°18'0 0.0
2018-Apr-18 23:30N 36°46' W 076°18'0 0.0
2018-Apr-18 23:00N 36°46' W 076°18'0 0.0
2018-Apr-18 22:27N 36°46' W 076°18'0 0.0
2018-Apr-18 22:00N 36°46' W 076°18'0 0.0
2018-Apr-18 21:30N 36°46' W 076°18'0 0.0
2018-Apr-18 21:00N 36°46' W 076°18'0 0.0
2018-Apr-18 20:30N 36°46' W 076°18'0 0.0
2018-Apr-18 20:00N 36°46' W 076°18'0 0.0
2018-Apr-18 19:30N 36°46' W 076°18'0 0.0
2018-Apr-18 19:00N 36°46' W 076°18'0 0.0
2018-Apr-18 18:30N 36°46' W 076°18'0 0.0
2018-Apr-18 18:00N 36°46' W 076°18'0 0.0
2018-Apr-18 17:30N 36°46' W 076°18'0 0.0
2018-Apr-18 17:00N 36°46' W 076°18'0 0.0
2018-Apr-18 16:30N 36°46' W 076°18'0 0.0
2018-Apr-18 16:00N 36°46' W 076°18'0 0.0
2018-Apr-18 15:30N 36°46' W 076°18'0 0.0
2018-Apr-18 15:00N 36°46' W 076°18'0 0.0
2018-Apr-18 14:30N 36°46' W 076°18'0 0.0
2018-Apr-18 14:00N 36°46' W 076°18'0 0.0
2018-Apr-18 13:30N 36°46' W 076°18'0 0.0
2018-Apr-18 13:00N 36°46' W 076°18'0 0.0
2018-Apr-18 12:30N 36°46' W 076°18'0 0.0
2018-Apr-18 12:00N 36°46' W 076°18'0 0.0
2018-Apr-18 11:30N 36°46' W 076°18'0 0.0
2018-Apr-18 11:00N 36°46' W 076°18'0 0.0
2018-Apr-18 10:30N 36°46' W 076°18'0 0.0
2018-Apr-18 10:00N 36°46' W 076°18'0 0.0
2018-Apr-18 09:27N 36°46' W 076°18'0 0.0
2018-Apr-18 09:00N 36°46' W 076°18'0 0.0
2018-Apr-18 08:30N 36°46' W 076°18'0 0.0
2018-Apr-18 08:00N 36°46' W 076°18'0 0.0
2018-Apr-18 07:30N 36°46' W 076°18'0 0.0
2018-Apr-18 07:00N 36°46' W 076°18'0 0.0
2018-Apr-18 06:30N 36°46' W 076°18'0 0.0
2018-Apr-18 06:00N 36°46' W 076°18'0 0.0
2018-Apr-18 05:30N 36°46' W 076°18'0 0.0
2018-Apr-18 05:00N 36°46' W 076°18'0 0.0
2018-Apr-18 04:30N 36°46' W 076°18'0 0.0
2018-Apr-18 04:00N 36°46' W 076°18'0 0.0
2018-Apr-18 03:30N 36°46' W 076°18'0 0.0
2018-Apr-18 03:00N 36°46' W 076°18'0 0.0
2018-Apr-18 02:30N 36°46' W 076°18'0 0.0
2018-Apr-18 02:00N 36°46' W 076°18'0 0.0
2018-Apr-18 01:30N 36°46' W 076°18'0 0.0
2018-Apr-18 01:00N 36°46' W 076°18'0 0.0
2018-Apr-18 00:30N 36°46' W 076°18'0 0.0
2018-Apr-18 00:00N 36°46' W 076°18'0 0.0
2018-Apr-17 23:30N 36°46' W 076°18'0 0.0
2018-Apr-17 23:00N 36°46' W 076°18'0 0.0
2018-Apr-17 22:30N 36°46' W 076°18'0 0.0
2018-Apr-17 22:00N 36°46' W 076°18'0 0.0
2018-Apr-17 21:30N 36°46' W 076°18'0 0.0
2018-Apr-17 21:00N 36°46' W 076°18'0 0.0
2018-Apr-17 20:30N 36°46' W 076°18'0 0.0
2018-Apr-17 20:00N 36°46' W 076°18'0 0.4
2018-Apr-17 19:30N 36°46' W 076°18'3 5.1
2018-Apr-17 18:59N 36°49' W 076°17'0 0.0
2018-Apr-17 18:29N 36°49' W 076°17'0 0.0
2018-Apr-17 17:59N 36°49' W 076°17'0 0.0
2018-Apr-17 17:29N 36°49' W 076°17'0 0.0
2018-Apr-17 16:59N 36°49' W 076°17'0 0.0
2018-Apr-17 16:29N 36°49' W 076°17'0 0.0
2018-Apr-17 16:00N 36°49' W 076°17'2 4.1
2018-Apr-17 15:30N 36°47' W 076°18'1 2.0
2018-Apr-17 15:00N 36°46' W 076°18'0 0.2
2018-Apr-17 14:30N 36°46' W 076°18'1 1.5
2018-Apr-17 14:00N 36°47' W 076°18'2 5.0
2018-Apr-17 13:30N 36°49' W 076°17'3 5.7
2018-Apr-17 13:00N 36°52' W 076°19'5 9.2
2018-Apr-17 12:30N 36°56' W 076°20'1 0.1
2018-Apr-17 00:58N 36°57' W 076°21'0 0.0
2018-Apr-17 00:28N 36°57' W 076°21'0 0.0
2018-Apr-15 12:52N 36°57' W 076°21'0 0.0
2018-Apr-15 12:28N 36°57' W 076°21'0 0.0
2018-Apr-15 05:07N 36°57' W 076°21'0 0.0
2018-Apr-15 04:52N 36°57' W 076°21'0 0.0
2018-Apr-15 04:25N 36°57' W 076°21'0 0.1
2018-Apr-15 02:48N 36°57' W 076°21'12 7.9
2018-Apr-15 01:20N 36°59' W 076°06'3 8.2
2018-Apr-15 01:00N 36°58' W 076°03'5 8.9
2018-Apr-15 00:29N 36°57' W 075°58'8 8.0
2018-Apr-14 23:27N 36°59' W 075°47'167 6.3
2018-Apr-13 20:58N 39°27' W 074°11'4 6.5
2018-Apr-13 20:25N 39°30' W 074°08'3 6.8
2018-Apr-13 20:00N 39°33' W 074°06'3 6.7
2018-Apr-13 19:30N 39°35' W 074°04'3 6.6
2018-Apr-13 19:00N 39°38' W 074°02'3 6.7
2018-Apr-13 18:30N 39°42' W 074°01'3 6.7
2018-Apr-13 18:00N 39°45' W 073°59'3 6.8
2018-Apr-13 17:30N 39°48' W 073°58'4 6.7
2018-Apr-13 16:57N 39°52' W 073°58'3 6.9
2018-Apr-13 16:29N 39°55' W 073°57'30 7.2
2018-Apr-13 12:19N 40°25' W 073°54'2 7.3
2018-Apr-13 12:00N 40°27' W 073°54'3 6.8
2018-Apr-13 11:30N 40°30' W 073°56'4 7.4
2018-Apr-13 11:00N 40°31' W 074°01'4 7.3
2018-Apr-13 10:29N 40°35' W 074°02'3 6.0
2018-Apr-13 10:00N 40°38' W 074°03'1 2.6
2018-Apr-13 09:30N 40°39' W 074°04'4 7.5
2018-Apr-13 09:00N 40°39' W 074°09'4 7.4
2018-Apr-13 08:29N 40°42' W 074°07'1 1.5
2018-Apr-13 08:00N 40°43' W 074°07'0 0.1
2018-Apr-13 07:30N 40°43' W 074°07'0 0.0
2018-Apr-13 06:58N 40°43' W 074°07'0 0.0
2018-Apr-13 06:28N 40°43' W 074°07'0 0.0
2018-Apr-13 05:58N 40°43' W 074°07'0 0.0
2018-Apr-13 05:28N 40°43' W 074°07'0 0.0
2018-Apr-13 04:58N 40°43' W 074°07'0 0.0
2018-Apr-13 04:25N 40°43' W 074°07'0 0.0
2018-Apr-13 03:58N 40°43' W 074°07'0 0.0
2018-Apr-13 03:25N 40°43' W 074°07'0 0.0
2018-Apr-13 02:58N 40°43' W 074°07'0 0.0
2018-Apr-13 02:25N 40°43' W 074°07'0 0.0
2018-Apr-13 01:58N 40°43' W 074°07'0 0.0
2018-Apr-13 01:25N 40°43' W 074°07'0 0.0
2018-Apr-13 00:58N 40°43' W 074°07'0 0.0
2018-Apr-13 00:28N 40°43' W 074°07'0 0.0
2018-Apr-12 23:58N 40°43' W 074°07'0 0.0
2018-Apr-12 23:28N 40°43' W 074°07'0 0.0
2018-Apr-12 22:58N 40°43' W 074°07'0 0.0
2018-Apr-12 22:22N 40°43' W 074°07'0 0.0
2018-Apr-12 21:58N 40°43' W 074°07'0 0.0
2018-Apr-12 21:28N 40°43' W 074°07'0 0.0
2018-Apr-12 21:00N 40°43' W 074°07'1 2.4
2018-Apr-12 20:30N 40°42' W 074°07'3 5.7
2018-Apr-12 20:00N 40°39' W 074°07'3 6.7
2018-Apr-12 19:30N 40°38' W 074°03'1 2.0
2018-Apr-12 19:00N 40°37' W 074°03'0 0.2
2018-Apr-12 18:30N 40°37' W 074°03'0 0.2
2018-Apr-12 18:00N 40°37' W 074°03'2 3.4
2018-Apr-12 17:30N 40°39' W 074°04'4 7.2
2018-Apr-12 17:01N 40°39' W 074°09'4 7.5
2018-Apr-12 16:30N 40°42' W 074°07'1 1.4
2018-Apr-12 16:01N 40°43' W 074°07'0 0.0
2018-Apr-12 15:30N 40°43' W 074°07'0 0.0
2018-Apr-12 15:00N 40°43' W 074°07'0 0.0
2018-Apr-12 14:30N 40°43' W 074°07'0 0.0
2018-Apr-12 14:00N 40°43' W 074°07'0 0.0
2018-Apr-12 13:27N 40°43' W 074°07'0 0.0
2018-Apr-12 13:00N 40°43' W 074°07'0 0.0
2018-Apr-12 12:30N 40°43' W 074°07'0 0.0
2018-Apr-12 12:00N 40°43' W 074°07'0 0.0
2018-Apr-12 11:30N 40°43' W 074°07'0 0.0
2018-Apr-12 10:57N 40°43' W 074°07'0 0.0
2018-Apr-12 10:30N 40°43' W 074°07'0 0.0
2018-Apr-12 10:00N 40°43' W 074°07'0 0.0
2018-Apr-12 09:30N 40°43' W 074°07'0 0.0
2018-Apr-12 09:00N 40°43' W 074°07'0 0.0
2018-Apr-12 08:30N 40°43' W 074°07'0 0.0
2018-Apr-12 08:00N 40°43' W 074°07'0 0.0
2018-Apr-12 07:30N 40°43' W 074°07'0 0.0
2018-Apr-12 07:00N 40°43' W 074°07'0 0.0
2018-Apr-12 06:30N 40°43' W 074°07'0 0.0
2018-Apr-12 06:00N 40°43' W 074°07'0 0.0
2018-Apr-12 05:30N 40°43' W 074°07'0 0.0
2018-Apr-12 05:00N 40°43' W 074°07'0 0.0
2018-Apr-12 04:30N 40°43' W 074°07'0 0.0
2018-Apr-12 04:00N 40°43' W 074°07'0 0.0
2018-Apr-12 03:30N 40°43' W 074°07'0 0.0
2018-Apr-12 03:00N 40°43' W 074°07'0 0.0
2018-Apr-12 02:29N 40°43' W 074°07'0 0.0
2018-Apr-12 02:00N 40°43' W 074°07'0 0.0
2018-Apr-12 01:30N 40°43' W 074°07'0 0.0
2018-Apr-12 01:00N 40°43' W 074°07'0 0.0
2018-Apr-12 00:30N 40°43' W 074°07'0 0.0
2018-Apr-12 00:00N 40°43' W 074°07'0 0.0
2018-Apr-11 23:30N 40°43' W 074°07'0 0.0
2018-Apr-11 23:00N 40°43' W 074°07'0 0.0
2018-Apr-11 22:26N 40°43' W 074°07'0 0.0
2018-Apr-11 22:00N 40°43' W 074°07'0 0.0
2018-Apr-11 21:30N 40°43' W 074°07'0 0.0
2018-Apr-11 20:59N 40°43' W 074°07'0 0.0
2018-Apr-11 20:30N 40°43' W 074°07'0 1.0
2018-Apr-11 20:00N 40°42' W 074°07'3 6.5
2018-Apr-11 19:30N 40°39' W 074°09'3 5.3
2018-Apr-11 19:00N 40°39' W 074°05'2 3.5
2018-Apr-11 18:29N 40°38' W 074°03'0 0.2
2018-Apr-11 17:59N 40°38' W 074°03'0 0.2
2018-Apr-11 17:29N 40°38' W 074°03'0 0.3
2018-Apr-11 16:59N 40°38' W 074°03'0 0.1
2018-Apr-11 16:29N 40°38' W 074°03'0 0.3
2018-Apr-11 15:59N 40°38' W 074°03'1 2.1
2018-Apr-11 15:30N 40°39' W 074°04'3 5.7
2018-Apr-11 15:00N 40°39' W 074°08'2 5.0
2018-Apr-11 14:30N 40°41' W 074°08'2 2.8
2018-Apr-11 13:58N 40°43' W 074°07'0 0.4
2018-Apr-11 13:28N 40°43' W 074°07'0 0.1
2018-Apr-11 12:58N 40°43' W 074°07'3 6.6
2018-Apr-11 12:31N 40°40' W 074°08'1 2.8
2018-Apr-11 12:00N 40°38' W 074°08'0 0.0
2018-Apr-11 07:36N 40°38' W 074°08'0 0.0
2018-Apr-11 07:30N 40°38' W 074°08'  
Track history (hours):
 
Tides and Currents Weather Stations Pressure Air Temp Water Temp Dewpoint Dewpoint Depression Visibility Wind Speed Wind Dir Waves Ship Positions

Doris Moran

Owner: MORAN TOWING CORPORATION, New Canaan, CT. More information available from US FCC via Universal Licensing System and Coast Guard Vessel Documentation Center.

Last reported at 2018-Apr-21 07:27 UTC. Time now 2018-Apr-21 08:02 UTC.
Position N 39°30' W 074°08'.

Length 36 m; draft 5.3 m.

Type: Tow > 200 m length. MMSI: 366939790.

Date/timePositionNaut miles runAvg speedWind from/ knotsBaromVisibWave heightAir tempDewpointWater temp
2018-Apr-21 07:27N 39°30' W 074°08'174 5.3
2018-Apr-19 22:41N 36°56' W 075°52'1 6.8
2018-Apr-19 22:30N 36°56' W 075°54'5 9.1
2018-Apr-19 22:00N 36°57' W 075°59'5 9.2
2018-Apr-19 21:29N 36°58' W 076°05'12 5.1
2018-Apr-19 19:07N 36°59' W 076°20'2 7.1
2018-Apr-19 18:51N 36°57' W 076°20'4 8.7
2018-Apr-19 18:24N 36°53' W 076°20'3 7.6
2018-Apr-19 18:00N 36°51' W 076°18'3 6.1
2018-Apr-19 17:30N 36°48' W 076°18'1 2.5
2018-Apr-19 17:00N 36°46' W 076°18'0 0.0
2018-Apr-19 16:30N 36°46' W 076°18'0 0.0
2018-Apr-19 16:00N 36°46' W 076°18'0 0.0
2018-Apr-19 15:30N 36°46' W 076°18'0 0.0
2018-Apr-19 15:00N 36°46' W 076°18'0 0.0
2018-Apr-19 14:30N 36°46' W 076°18'0 0.0
2018-Apr-19 14:00N 36°46' W 076°18'0 0.0
2018-Apr-19 13:30N 36°46' W 076°18'0 0.0
2018-Apr-19 13:00N 36°46' W 076°18'0 0.0
2018-Apr-19 12:30N 36°46' W 076°18'0 0.0
2018-Apr-19 12:00N 36°46' W 076°18'0 0.0
2018-Apr-19 11:30N 36°46' W 076°18'0 0.0
2018-Apr-19 11:00N 36°46' W 076°18'0 0.0
2018-Apr-19 10:30N 36°46' W 076°18'0 0.0
2018-Apr-19 10:00N 36°46' W 076°18'0 0.0
2018-Apr-19 09:30N 36°46' W 076°18'0 0.0
2018-Apr-19 09:00N 36°46' W 076°18'0 0.0
2018-Apr-19 08:30N 36°46' W 076°18'0 0.0
2018-Apr-19 08:00N 36°46' W 076°18'0 0.0
2018-Apr-19 07:30N 36°46' W 076°18'0 0.0
2018-Apr-19 07:00N 36°46' W 076°18'0 0.0
2018-Apr-19 06:30N 36°46' W 076°18'0 0.0
2018-Apr-19 06:00N 36°46' W 076°18'0 0.0
2018-Apr-19 05:30N 36°46' W 076°18'0 0.0
2018-Apr-19 05:00N 36°46' W 076°18'0 0.0
2018-Apr-19 04:30N 36°46' W 076°18'0 0.0
2018-Apr-19 04:00N 36°46' W 076°18'0 0.0
2018-Apr-19 03:30N 36°46' W 076°18'0 0.0
2018-Apr-19 03:00N 36°46' W 076°18'0 0.0
2018-Apr-19 02:30N 36°46' W 076°18'0 0.0
2018-Apr-19 02:00N 36°46' W 076°18'0 0.0
2018-Apr-19 01:30N 36°46' W 076°18'0 0.0
2018-Apr-19 01:00N 36°46' W 076°18'0 0.0
2018-Apr-19 00:30N 36°46' W 076°18'0 0.0
2018-Apr-19 00:00N 36°46' W 076°18'0 0.0
2018-Apr-18 23:30N 36°46' W 076°18'0 0.0
2018-Apr-18 23:00N 36°46' W 076°18'0 0.0
2018-Apr-18 22:27N 36°46' W 076°18'0 0.0
2018-Apr-18 22:00N 36°46' W 076°18'0 0.0
2018-Apr-18 21:30N 36°46' W 076°18'0 0.0
2018-Apr-18 21:00N 36°46' W 076°18'0 0.0
2018-Apr-18 20:30N 36°46' W 076°18'0 0.0
2018-Apr-18 20:00N 36°46' W 076°18'0 0.0
2018-Apr-18 19:30N 36°46' W 076°18'0 0.0
2018-Apr-18 19:00N 36°46' W 076°18'0 0.0
2018-Apr-18 18:30N 36°46' W 076°18'0 0.0
2018-Apr-18 18:00N 36°46' W 076°18'0 0.0
2018-Apr-18 17:30N 36°46' W 076°18'0 0.0
2018-Apr-18 17:00N 36°46' W 076°18'0 0.0
2018-Apr-18 16:30N 36°46' W 076°18'0 0.0
2018-Apr-18 16:00N 36°46' W 076°18'0 0.0
2018-Apr-18 15:30N 36°46' W 076°18'0 0.0
2018-Apr-18 15:00N 36°46' W 076°18'0 0.0
2018-Apr-18 14:30N 36°46' W 076°18'0 0.0
2018-Apr-18 14:00N 36°46' W 076°18'0 0.0
2018-Apr-18 13:30N 36°46' W 076°18'0 0.0
2018-Apr-18 13:00N 36°46' W 076°18'0 0.0
2018-Apr-18 12:30N 36°46' W 076°18'0 0.0
2018-Apr-18 12:00N 36°46' W 076°18'0 0.0
2018-Apr-18 11:30N 36°46' W 076°18'0 0.0
2018-Apr-18 11:00N 36°46' W 076°18'0 0.0
2018-Apr-18 10:30N 36°46' W 076°18'0 0.0
2018-Apr-18 10:00N 36°46' W 076°18'0 0.0
2018-Apr-18 09:27N 36°46' W 076°18'0 0.0
2018-Apr-18 09:00N 36°46' W 076°18'0 0.0
2018-Apr-18 08:30N 36°46' W 076°18'0 0.0
2018-Apr-18 08:00N 36°46' W 076°18'0 0.0
2018-Apr-18 07:30N 36°46' W 076°18'0 0.0
2018-Apr-18 07:00N 36°46' W 076°18'0 0.0
2018-Apr-18 06:30N 36°46' W 076°18'0 0.0
2018-Apr-18 06:00N 36°46' W 076°18'0 0.0
2018-Apr-18 05:30N 36°46' W 076°18'0 0.0
2018-Apr-18 05:00N 36°46' W 076°18'0 0.0
2018-Apr-18 04:30N 36°46' W 076°18'0 0.0
2018-Apr-18 04:00N 36°46' W 076°18'0 0.0
2018-Apr-18 03:30N 36°46' W 076°18'0 0.0
2018-Apr-18 03:00N 36°46' W 076°18'0 0.0
2018-Apr-18 02:30N 36°46' W 076°18'0 0.0
2018-Apr-18 02:00N 36°46' W 076°18'0 0.0
2018-Apr-18 01:30N 36°46' W 076°18'0 0.0
2018-Apr-18 01:00N 36°46' W 076°18'0 0.0
2018-Apr-18 00:30N 36°46' W 076°18'0 0.0
2018-Apr-18 00:00N 36°46' W 076°18'0 0.0
2018-Apr-17 23:30N 36°46' W 076°18'0 0.0
2018-Apr-17 23:00N 36°46' W 076°18'0 0.0
2018-Apr-17 22:30N 36°46' W 076°18'0 0.0
2018-Apr-17 22:00N 36°46' W 076°18'0 0.0
2018-Apr-17 21:30N 36°46' W 076°18'0 0.0
2018-Apr-17 21:00N 36°46' W 076°18'0 0.0
2018-Apr-17 20:30N 36°46' W 076°18'0 0.0
2018-Apr-17 20:00N 36°46' W 076°18'0 0.4
2018-Apr-17 19:30N 36°46' W 076°18'3 5.1
2018-Apr-17 18:59N 36°49' W 076°17'0 0.0
2018-Apr-17 18:29N 36°49' W 076°17'0 0.0
2018-Apr-17 17:59N 36°49' W 076°17'0 0.0
2018-Apr-17 17:29N 36°49' W 076°17'0 0.0
2018-Apr-17 16:59N 36°49' W 076°17'0 0.0
2018-Apr-17 16:29N 36°49' W 076°17'0 0.0
2018-Apr-17 16:00N 36°49' W 076°17'2 4.1
2018-Apr-17 15:30N 36°47' W 076°18'1 2.0
2018-Apr-17 15:00N 36°46' W 076°18'0 0.2
2018-Apr-17 14:30N 36°46' W 076°18'1 1.5
2018-Apr-17 14:00N 36°47' W 076°18'2 5.0
2018-Apr-17 13:30N 36°49' W 076°17'3 5.7
2018-Apr-17 13:00N 36°52' W 076°19'5 9.2
2018-Apr-17 12:30N 36°56' W 076°20'1 0.1
2018-Apr-17 00:58N 36°57' W 076°21'0 0.0
2018-Apr-17 00:28N 36°57' W 076°21'0 0.0
2018-Apr-15 12:52N 36°57' W 076°21'0 0.0
2018-Apr-15 12:28N 36°57' W 076°21'0 0.0
2018-Apr-15 05:07N 36°57' W 076°21'0 0.0
2018-Apr-15 04:52N 36°57' W 076°21'0 0.0
2018-Apr-15 04:25N 36°57' W 076°21'0 0.1
2018-Apr-15 02:48N 36°57' W 076°21'12 7.9
2018-Apr-15 01:20N 36°59' W 076°06'3 8.2
2018-Apr-15 01:00N 36°58' W 076°03'5 8.9
2018-Apr-15 00:29N 36°57' W 075°58'8 8.0
2018-Apr-14 23:27N 36°59' W 075°47'167 6.3
2018-Apr-13 20:58N 39°27' W 074°11'4 6.5
2018-Apr-13 20:25N 39°30' W 074°08'3 6.8
2018-Apr-13 20:00N 39°33' W 074°06'3 6.7
2018-Apr-13 19:30N 39°35' W 074°04'3 6.6
2018-Apr-13 19:00N 39°38' W 074°02'3 6.7
2018-Apr-13 18:30N 39°42' W 074°01'3 6.7
2018-Apr-13 18:00N 39°45' W 073°59'3 6.8
2018-Apr-13 17:30N 39°48' W 073°58'4 6.7
2018-Apr-13 16:57N 39°52' W 073°58'3 6.9
2018-Apr-13 16:29N 39°55' W 073°57'30 7.2
2018-Apr-13 12:19N 40°25' W 073°54'2 7.3
2018-Apr-13 12:00N 40°27' W 073°54'3 6.8
2018-Apr-13 11:30N 40°30' W 073°56'4 7.4
2018-Apr-13 11:00N 40°31' W 074°01'4 7.3
2018-Apr-13 10:29N 40°35' W 074°02'3 6.0
2018-Apr-13 10:00N 40°38' W 074°03'1 2.6
2018-Apr-13 09:30N 40°39' W 074°04'4 7.5
2018-Apr-13 09:00N 40°39' W 074°09'4 7.4
2018-Apr-13 08:29N 40°42' W 074°07'1 1.5
2018-Apr-13 08:00N 40°43' W 074°07'0 0.1
2018-Apr-13 07:30N 40°43' W 074°07'0 0.0
2018-Apr-13 06:58N 40°43' W 074°07'0 0.0
2018-Apr-13 06:28N 40°43' W 074°07'0 0.0
2018-Apr-13 05:58N 40°43' W 074°07'0 0.0
2018-Apr-13 05:28N 40°43' W 074°07'0 0.0
2018-Apr-13 04:58N 40°43' W 074°07'0 0.0
2018-Apr-13 04:25N 40°43' W 074°07'0 0.0
2018-Apr-13 03:58N 40°43' W 074°07'0 0.0
2018-Apr-13 03:25N 40°43' W 074°07'0 0.0
2018-Apr-13 02:58N 40°43' W 074°07'0 0.0
2018-Apr-13 02:25N 40°43' W 074°07'0 0.0
2018-Apr-13 01:58N 40°43' W 074°07'0 0.0
2018-Apr-13 01:25N 40°43' W 074°07'0 0.0
2018-Apr-13 00:58N 40°43' W 074°07'0 0.0
2018-Apr-13 00:28N 40°43' W 074°07'0 0.0
2018-Apr-12 23:58N 40°43' W 074°07'0 0.0
2018-Apr-12 23:28N 40°43' W 074°07'0 0.0
2018-Apr-12 22:58N 40°43' W 074°07'0 0.0
2018-Apr-12 22:22N 40°43' W 074°07'0 0.0
2018-Apr-12 21:58N 40°43' W 074°07'0 0.0
2018-Apr-12 21:28N 40°43' W 074°07'0 0.0
2018-Apr-12 21:00N 40°43' W 074°07'1 2.4
2018-Apr-12 20:30N 40°42' W 074°07'3 5.7
2018-Apr-12 20:00N 40°39' W 074°07'3 6.7
2018-Apr-12 19:30N 40°38' W 074°03'1 2.0
2018-Apr-12 19:00N 40°37' W 074°03'0 0.2
2018-Apr-12 18:30N 40°37' W 074°03'0 0.2
2018-Apr-12 18:00N 40°37' W 074°03'2 3.4
2018-Apr-12 17:30N 40°39' W 074°04'4 7.2
2018-Apr-12 17:01N 40°39' W 074°09'4 7.5
2018-Apr-12 16:30N 40°42' W 074°07'1 1.4
2018-Apr-12 16:01N 40°43' W 074°07'0 0.0
2018-Apr-12 15:30N 40°43' W 074°07'0 0.0
2018-Apr-12 15:00N 40°43' W 074°07'0 0.0
2018-Apr-12 14:30N 40°43' W 074°07'0 0.0
2018-Apr-12 14:00N 40°43' W 074°07'0 0.0
2018-Apr-12 13:27N 40°43' W 074°07'0 0.0
2018-Apr-12 13:00N 40°43' W 074°07'0 0.0
2018-Apr-12 12:30N 40°43' W 074°07'0 0.0
2018-Apr-12 12:00N 40°43' W 074°07'0 0.0
2018-Apr-12 11:30N 40°43' W 074°07'0 0.0
2018-Apr-12 10:57N 40°43' W 074°07'0 0.0
2018-Apr-12 10:30N 40°43' W 074°07'0 0.0
2018-Apr-12 10:00N 40°43' W 074°07'0 0.0
2018-Apr-12 09:30N 40°43' W 074°07'0 0.0
2018-Apr-12 09:00N 40°43' W 074°07'0 0.0
2018-Apr-12 08:30N 40°43' W 074°07'0 0.0
2018-Apr-12 08:00N 40°43' W 074°07'0 0.0
2018-Apr-12 07:30N 40°43' W 074°07'0 0.0
2018-Apr-12 07:00N 40°43' W 074°07'0 0.0
2018-Apr-12 06:30N 40°43' W 074°07'0 0.0
2018-Apr-12 06:00N 40°43' W 074°07'0 0.0
2018-Apr-12 05:30N 40°43' W 074°07'0 0.0
2018-Apr-12 05:00N 40°43' W 074°07'0 0.0
2018-Apr-12 04:30N 40°43' W 074°07'0 0.0
2018-Apr-12 04:00N 40°43' W 074°07'0 0.0
2018-Apr-12 03:30N 40°43' W 074°07'0 0.0
2018-Apr-12 03:00N 40°43' W 074°07'0 0.0
2018-Apr-12 02:29N 40°43' W 074°07'0 0.0
2018-Apr-12 02:00N 40°43' W 074°07'0 0.0
2018-Apr-12 01:30N 40°43' W 074°07'0 0.0
2018-Apr-12 01:00N 40°43' W 074°07'0 0.0
2018-Apr-12 00:30N 40°43' W 074°07'0 0.0
2018-Apr-12 00:00N 40°43' W 074°07'0 0.0
2018-Apr-11 23:30N 40°43' W 074°07'0 0.0
2018-Apr-11 23:00N 40°43' W 074°07'0 0.0
2018-Apr-11 22:26N 40°43' W 074°07'0 0.0
2018-Apr-11 22:00N 40°43' W 074°07'0 0.0
2018-Apr-11 21:30N 40°43' W 074°07'0 0.0
2018-Apr-11 20:59N 40°43' W 074°07'0 0.0
2018-Apr-11 20:30N 40°43' W 074°07'0 1.0
2018-Apr-11 20:00N 40°42' W 074°07'3 6.5
2018-Apr-11 19:30N 40°39' W 074°09'3 5.3
2018-Apr-11 19:00N 40°39' W 074°05'2 3.5
2018-Apr-11 18:29N 40°38' W 074°03'0 0.2
2018-Apr-11 17:59N 40°38' W 074°03'0 0.2
2018-Apr-11 17:29N 40°38' W 074°03'0 0.3
2018-Apr-11 16:59N 40°38' W 074°03'0 0.1
2018-Apr-11 16:29N 40°38' W 074°03'0 0.3
2018-Apr-11 15:59N 40°38' W 074°03'1 2.1
2018-Apr-11 15:30N 40°39' W 074°04'3 5.7
2018-Apr-11 15:00N 40°39' W 074°08'2 5.0
2018-Apr-11 14:30N 40°41' W 074°08'2 2.8
2018-Apr-11 13:58N 40°43' W 074°07'0 0.4
2018-Apr-11 13:28N 40°43' W 074°07'0 0.1
2018-Apr-11 12:58N 40°43' W 074°07'3 6.6
2018-Apr-11 12:31N 40°40' W 074°08'1 2.8
2018-Apr-11 12:00N 40°38' W 074°08'0 0.0
2018-Apr-11 07:36N 40°38' W 074°08'0 0.0
2018-Apr-11 07:30N 40°38' W 074°08'  

Dump ship's entire track history